Time;durP1;ratioP1;P1;durP2;ratioP2;P2;SDS_P1;SDS_P2;PMS_P1;PMS_P2;Temp;Humidity;BMP_temperature;BMP_pressure;BME280_temperature;BME280_humidity;BME280_pressure;Samples;Min_cycle;Max_cycle;Signal;HPM_P1;HPM_P2
2021/11/24 00:00:30;;;;;;;10.83;8.40;;;5.70;52.50;;;;;;5026201;28;20753;-47
2021/11/24 00:02:56;;;;;;;12.30;8.60;;;5.70;52.30;;;;;;5023587;28;20463;-46
2021/11/24 00:05:22;;;;;;;10.60;8.30;;;5.80;52.40;;;;;;5027656;28;20458;-47
2021/11/24 00:07:48;;;;;;;12.20;8.40;;;5.80;52.40;;;;;;5031528;28;20815;-47
2021/11/24 00:10:16;;;;;;;10.53;8.53;;;5.80;53.00;;;;;;5028570;28;20448;-46
2021/11/24 00:12:42;;;;;;;12.30;8.73;;;5.80;52.40;;;;;;5027298;28;20475;-49
2021/11/24 00:15:08;;;;;;;11.03;9.10;;;5.80;52.40;;;;;;5029757;28;20479;-51
2021/11/24 00:17:34;;;;;;;12.53;8.60;;;5.70;52.60;;;;;;5028521;28;20229;-47
2021/11/24 00:20:00;;;;;;;13.20;8.30;;;5.70;52.40;;;;;;5026025;28;20466;-48
2021/11/24 00:22:25;;;;;;;14.17;8.70;;;5.70;52.30;;;;;;5022592;28;20452;-49
2021/11/24 00:24:51;;;;;;;12.30;9.43;;;5.70;52.30;;;;;;5025918;28;20193;-49
2021/11/24 00:27:17;;;;;;;14.97;8.33;;;5.70;52.30;;;;;;5030380;28;20665;-47
2021/11/24 00:29:42;;;;;;;9.70;7.90;;;5.70;52.30;;;;;;5027340;28;20612;-47
2021/11/24 00:32:08;;;;;;;10.57;8.57;;;5.70;52.10;;;;;;5024246;28;20208;-51
2021/11/24 00:34:34;;;;;;;13.23;7.87;;;5.60;51.70;;;;;;5028126;28;20193;-47
2021/11/24 00:36:59;;;;;;;11.70;8.10;;;5.50;51.80;;;;;;5024022;28;20193;-47
2021/11/24 00:39:25;;;;;;;9.90;7.73;;;5.60;51.80;;;;;;5024409;28;20276;-47
2021/11/24 00:41:51;;;;;;;10.27;7.13;;;5.50;51.60;;;;;;5024945;28;20646;-51
2021/11/24 00:44:17;;;;;;;9.90;7.83;;;5.50;51.80;;;;;;5024522;28;20475;-49
2021/11/24 00:46:43;;;;;;;13.00;8.07;;;5.50;51.80;;;;;;5022894;28;20302;-47
2021/11/24 00:49:09;;;;;;;11.77;8.33;;;5.50;51.80;;;;;;5022587;28;20197;-48
2021/11/24 00:51:35;;;;;;;13.23;8.80;;;5.40;51.80;;;;;;5029125;28;20454;-53
2021/11/24 00:54:01;;;;;;;9.13;7.67;;;5.30;51.80;;;;;;5030075;28;20201;-48
2021/11/24 00:56:27;;;;;;;9.60;7.73;;;5.20;51.60;;;;;;5024203;28;20498;-47
2021/11/24 00:58:52;;;;;;;11.00;7.63;;;5.20;51.80;;;;;;5024327;28;20448;-48
2021/11/24 01:01:18;;;;;;;11.47;8.37;;;5.20;51.70;;;;;;5023970;28;20271;-47
2021/11/24 01:03:44;;;;;;;11.20;8.23;;;5.20;51.70;;;;;;5031356;28;20227;-50
2021/11/24 01:06:09;;;;;;;11.50;7.87;;;5.20;51.70;;;;;;5022832;28;20196;-47
2021/11/24 01:08:35;;;;;;;10.30;8.40;;;5.20;52.60;;;;;;5025282;28;20243;-50
2021/11/24 01:11:01;;;;;;;11.63;8.97;;;5.10;52.10;;;;;;5031259;28;20259;-47
2021/11/24 01:13:27;;;;;;;11.23;8.67;;;5.10;52.40;;;;;;5025320;28;20230;-48
2021/11/24 01:15:53;;;;;;;12.67;8.87;;;5.10;52.40;;;;;;5023485;28;20883;-48
2021/11/24 01:18:18;;;;;;;17.17;8.33;;;5.10;52.50;;;;;;5028299;28;20464;-51
2021/11/24 01:20:47;;;;;;;13.50;8.83;;;5.10;52.50;;;;;;5023395;28;20279;-47
2021/11/24 01:23:14;;;;;;;10.83;7.73;;;5.10;52.40;;;;;;5023517;28;20221;-47
2021/11/24 01:25:40;;;;;;;11.93;7.30;;;5.00;52.10;;;;;;5021013;28;20799;-46
2021/11/24 01:28:06;;;;;;;15.70;9.47;;;5.00;52.00;;;;;;5023909;28;21693;-48
2021/11/24 01:30:32;;;;;;;13.23;7.77;;;5.00;51.90;;;;;;5024512;28;20204;-49
2021/11/24 01:32:58;;;;;;;9.37;6.90;;;4.90;51.90;;;;;;5022981;28;20448;-47
2021/11/24 01:35:23;;;;;;;10.73;7.90;;;4.90;51.90;;;;;;5025129;28;20193;-47
2021/11/24 01:37:49;;;;;;;11.37;7.97;;;4.90;51.80;;;;;;5026106;28;20669;-46
2021/11/24 01:40:15;;;;;;;9.60;7.60;;;4.90;51.70;;;;;;5027595;28;21987;-50
2021/11/24 01:42:42;;;;;;;10.67;7.17;;;4.90;51.90;;;;;;5029060;28;20205;-47
2021/11/24 01:45:09;;;;;;;9.40;7.07;;;4.80;51.80;;;;;;5027315;28;20480;-47
2021/11/24 01:47:35;;;;;;;12.40;7.20;;;4.70;51.70;;;;;;5022601;28;20451;-48
2021/11/24 01:50:02;;;;;;;11.73;7.27;;;4.80;51.90;;;;;;5022829;28;20805;-47
2021/11/24 01:52:30;;;;;;;15.23;8.03;;;4.70;52.10;;;;;;5023468;28;20443;-51
2021/11/24 01:54:55;;;;;;;9.43;7.07;;;4.70;52.30;;;;;;5023491;28;20602;-47
2021/11/24 01:57:24;;;;;;;11.80;7.30;;;4.70;52.40;;;;;;5028897;28;20975;-47
2021/11/24 01:59:49;;;;;;;10.27;7.50;;;4.60;52.50;;;;;;5022792;28;20255;-47
2021/11/24 02:02:17;;;;;;;9.10;6.37;;;4.60;52.40;;;;;;5026679;28;20459;-47
2021/11/24 02:04:43;;;;;;;7.23;5.90;;;4.70;52.40;;;;;;5028701;28;20229;-46
2021/11/24 02:07:08;;;;;;;9.80;6.70;;;4.60;52.20;;;;;;5025750;28;20435;-48
2021/11/24 02:09:34;;;;;;;9.20;6.60;;;4.70;52.20;;;;;;5026456;28;20208;-47
2021/11/24 02:12:00;;;;;;;7.57;5.47;;;4.70;52.10;;;;;;5024274;28;20201;-48
2021/11/24 02:14:26;;;;;;;9.60;6.20;;;4.60;52.20;;;;;;5024618;28;20206;-47
2021/11/24 02:16:53;;;;;;;8.40;6.03;;;4.60;52.20;;;;;;5023717;28;20440;-48
2021/11/24 02:19:20;;;;;;;7.37;6.10;;;4.70;52.30;;;;;;5023172;28;20668;-47
2021/11/24 02:21:51;;;;;;;7.23;5.43;;;4.60;51.90;;;;;;5023492;28;20452;-50
2021/11/24 02:24:18;;;;;;;7.07;6.37;;;4.60;51.70;;;;;;5027822;28;20578;-47
2021/11/24 02:26:44;;;;;;;10.70;6.67;;;4.50;51.50;;;;;;5029833;28;20443;-47
2021/11/24 02:29:10;;;;;;;8.67;6.57;;;4.50;51.80;;;;;;5029192;28;20810;-47
2021/11/24 02:31:35;;;;;;;10.07;6.90;;;4.40;52.20;;;;;;5022598;28;20432;-47
2021/11/24 02:34:01;;;;;;;8.97;6.97;;;4.50;52.40;;;;;;5022017;28;20197;-51
2021/11/24 02:36:29;;;;;;;9.50;7.00;;;4.50;52.20;;;;;;5025987;28;20204;-48
2021/11/24 02:38:54;;;;;;;8.73;7.70;;;4.50;51.90;;;;;;5022891;28;20589;-47
2021/11/24 02:41:20;;;;;;;10.00;7.40;;;4.50;51.90;;;;;;5022673;28;20546;-47
2021/11/24 02:43:46;;;;;;;8.30;6.97;;;4.50;52.00;;;;;;5020702;28;20221;-47
2021/11/24 02:46:12;;;;;;;9.83;7.00;;;4.50;52.20;;;;;;5020683;28;20200;-47
2021/11/24 02:48:37;;;;;;;8.10;6.90;;;4.40;52.10;;;;;;5031268;28;20236;-49
2021/11/24 02:51:03;;;;;;;10.27;7.10;;;4.40;52.40;;;;;;5029826;28;20561;-47
2021/11/24 02:53:31;;;;;;;7.50;6.77;;;4.40;52.60;;;;;;5030379;28;20443;-47
2021/11/24 02:55:58;;;;;;;8.90;6.80;;;4.40;52.60;;;;;;5029837;28;20247;-47
2021/11/24 02:58:25;;;;;;;8.53;6.73;;;4.40;52.60;;;;;;5030543;28;20436;-51
2021/11/24 03:00:52;;;;;;;10.97;7.90;;;4.40;52.50;;;;;;5030373;28;20457;-47
2021/11/24 03:03:18;;;;;;;9.97;7.03;;;4.50;52.50;;;;;;5028957;28;20479;-49
2021/11/24 03:05:44;;;;;;;10.90;8.30;;;4.50;52.60;;;;;;5029488;28;20824;-48
2021/11/24 03:08:10;;;;;;;12.50;7.40;;;4.40;52.30;;;;;;5028995;28;20431;-48
2021/11/24 03:10:35;;;;;;;12.60;8.47;;;4.40;52.20;;;;;;5029512;28;20431;-49
2021/11/24 03:13:02;;;;;;;10.50;7.73;;;4.40;52.20;;;;;;5033417;28;20204;-48
2021/11/24 03:15:28;;;;;;;8.70;6.23;;;4.40;52.60;;;;;;5034075;28;20196;-47
2021/11/24 03:17:54;;;;;;;10.43;7.47;;;4.30;52.70;;;;;;5032475;28;20555;-47
2021/11/24 03:20:20;;;;;;;10.77;7.40;;;4.30;52.80;;;;;;5032768;28;20829;-51
2021/11/24 03:22:46;;;;;;;11.50;7.07;;;4.30;52.80;;;;;;5033219;28;20271;-47
2021/11/24 03:25:13;;;;;;;8.70;7.10;;;4.30;52.80;;;;;;5033480;28;20523;-47
2021/11/24 03:27:40;;;;;;;8.20;6.23;;;4.40;53.00;;;;;;5033291;28;20950;-47
2021/11/24 03:30:13;;;;;;;10.50;6.83;;;4.40;52.90;;;;;;5033550;28;20428;-47
2021/11/24 03:32:39;;;;;;;8.10;6.40;;;4.40;52.70;;;;;;5031938;28;20821;-47
2021/11/24 03:35:06;;;;;;;9.00;6.50;;;4.30;52.30;;;;;;5033600;28;21011;-47
2021/11/24 03:37:32;;;;;;;9.30;6.80;;;4.30;52.20;;;;;;5030895;28;20554;-47
2021/11/24 03:39:57;;;;;;;9.73;6.80;;;4.30;52.20;;;;;;5032584;28;20436;-47
2021/11/24 03:42:23;;;;;;;8.73;6.80;;;4.30;52.10;;;;;;5032930;28;20436;-47
2021/11/24 03:44:49;;;;;;;8.50;6.70;;;4.30;52.00;;;;;;5033010;28;20837;-47
2021/11/24 03:47:16;;;;;;;10.17;7.27;;;4.30;52.20;;;;;;5031835;28;20453;-47
2021/11/24 03:49:42;;;;;;;6.53;5.53;;;4.20;52.50;;;;;;5028910;28;20459;-48
2021/11/24 03:52:07;;;;;;;8.13;6.40;;;4.20;52.60;;;;;;5028821;28;20432;-48
2021/11/24 03:54:33;;;;;;;9.63;6.20;;;4.20;52.30;;;;;;5032607;28;20510;-47
2021/11/24 03:56:59;;;;;;;8.60;6.77;;;4.20;52.30;;;;;;5029194;28;20264;-47
2021/11/24 03:59:24;;;;;;;9.10;7.07;;;4.20;52.40;;;;;;5029828;28;20193;-49
2021/11/24 04:01:50;;;;;;;12.50;7.67;;;4.20;52.00;;;;;;5022299;28;20224;-47
2021/11/24 04:04:16;;;;;;;7.73;6.40;;;4.20;51.70;;;;;;5029084;28;20228;-47
2021/11/24 04:06:41;;;;;;;10.60;7.13;;;4.10;51.60;;;;;;5026674;28;20432;-47
2021/11/24 04:09:07;;;;;;;8.83;7.00;;;4.10;51.80;;;;;;5028562;28;20193;-47
2021/11/24 04:11:33;;;;;;;8.60;7.13;;;4.10;52.10;;;;;;5026981;28;20200;-47
2021/11/24 04:13:59;;;;;;;9.23;7.40;;;4.10;52.10;;;;;;5029516;28;20451;-48
2021/11/24 04:16:25;;;;;;;9.43;7.00;;;4.10;52.10;;;;;;5032163;28;20569;-47
2021/11/24 04:18:50;;;;;;;12.27;8.07;;;4.10;52.10;;;;;;5030397;28;20240;-47
2021/11/24 04:21:17;;;;;;;7.63;6.83;;;4.10;52.00;;;;;;5029027;28;20805;-46
2021/11/24 04:23:43;;;;;;;13.10;8.03;;;4.00;52.20;;;;;;5027580;28;20244;-47
2021/11/24 04:26:09;;;;;;;9.43;7.23;;;4.00;52.30;;;;;;5022279;28;20440;-47
2021/11/24 04:28:35;;;;;;;8.20;6.67;;;4.00;52.20;;;;;;5031940;28;20443;-46
2021/11/24 04:31:05;;;;;;;9.20;6.70;;;4.00;52.00;;;;;;5023735;28;20247;-47
2021/11/24 04:33:30;;;;;;;8.00;6.57;;;4.00;52.10;;;;;;5022460;28;20351;-47
2021/11/24 04:35:56;;;;;;;8.87;6.77;;;3.90;52.20;;;;;;5027519;28;20538;-47
2021/11/24 04:38:22;;;;;;;9.83;7.23;;;3.90;52.40;;;;;;5031315;28;20197;-47
2021/11/24 04:40:47;;;;;;;10.40;8.10;;;3.90;52.40;;;;;;5029052;28;20204;-47
2021/11/24 04:43:15;;;;;;;9.27;6.90;;;3.80;52.30;;;;;;5031561;28;20219;-48
2021/11/24 04:45:41;;;;;;;14.77;8.33;;;3.80;52.20;;;;;;5029314;28;20546;-48
2021/11/24 04:48:07;;;;;;;12.43;7.70;;;3.80;52.10;;;;;;5027868;28;20447;-48
2021/11/24 04:50:32;;;;;;;12.97;7.40;;;3.80;51.90;;;;;;5030060;28;20193;-47
2021/11/24 04:52:58;;;;;;;10.43;8.97;;;3.80;51.90;;;;;;5031518;28;20206;-46
2021/11/24 04:55:23;;;;;;;14.47;9.43;;;3.70;51.80;;;;;;5027764;28;20197;-46
2021/11/24 04:57:49;;;;;;;9.60;7.30;;;3.80;52.00;;;;;;5030024;28;20203;-46
2021/11/24 05:00:18;;;;;;;8.43;7.37;;;3.80;52.30;;;;;;5022690;28;20205;-46
2021/11/24 05:02:45;;;;;;;8.23;7.43;;;3.70;52.60;;;;;;5025432;28;20205;-46
2021/11/24 05:05:11;;;;;;;9.10;7.10;;;3.70;52.60;;;;;;5026983;28;20868;-46
2021/11/24 05:07:36;;;;;;;10.43;6.37;;;3.70;52.60;;;;;;5031218;28;20498;-46
2021/11/24 05:10:04;;;;;;;9.30;7.70;;;3.70;52.60;;;;;;5031416;28;20551;-46
2021/11/24 05:12:30;;;;;;;8.83;6.90;;;3.70;52.70;;;;;;5031364;28;20716;-46
2021/11/24 05:14:57;;;;;;;10.10;7.00;;;3.70;52.80;;;;;;5031164;28;20509;-46
2021/11/24 05:17:26;;;;;;;8.90;7.10;;;3.70;52.70;;;;;;5031131;28;20467;-47
2021/11/24 05:19:52;;;;;;;12.47;7.93;;;3.70;52.80;;;;;;5031470;28;20609;-47
2021/11/24 05:22:19;;;;;;;10.40;7.67;;;3.70;52.90;;;;;;5030599;28;20444;-46
2021/11/24 05:24:45;;;;;;;11.27;7.07;;;3.70;52.90;;;;;;5031947;28;20483;-47
2021/11/24 05:27:10;;;;;;;11.40;7.70;;;3.70;52.80;;;;;;5031422;28;20451;-47
2021/11/24 05:29:36;;;;;;;11.83;8.00;;;3.70;52.80;;;;;;5029592;28;20284;-47
2021/11/24 05:32:02;;;;;;;12.97;8.13;;;3.70;52.80;;;;;;5025832;28;20193;-46
2021/11/24 05:34:28;;;;;;;9.93;8.20;;;3.70;52.90;;;;;;5031534;28;20200;-46
2021/11/24 05:36:53;;;;;;;12.57;8.20;;;3.70;52.70;;;;;;5030566;28;20439;-47
2021/11/24 05:39:19;;;;;;;9.90;8.17;;;3.70;52.80;;;;;;5031713;28;20197;-46
2021/11/24 05:41:44;;;;;;;10.83;7.40;;;3.60;53.10;;;;;;5030105;28;20550;-48
2021/11/24 05:46:46;;;;;;;12.37;8.10;;;3.60;53.50;;;;;;5030753;28;20189;-47
2021/11/24 05:49:13;;;;;;;9.43;7.57;;;3.60;53.80;;;;;;5031876;28;22242;-47
2021/11/24 05:51:38;;;;;;;9.90;7.90;;;3.70;53.80;;;;;;5030735;28;20447;-46
2021/11/24 05:54:04;;;;;;;11.93;8.80;;;3.70;53.70;;;;;;5030956;28;20440;-47
2021/11/24 05:56:31;;;;;;;10.07;8.37;;;3.70;53.50;;;;;;5028561;28;20272;-46
2021/11/24 05:58:57;;;;;;;9.40;7.90;;;3.70;53.30;;;;;;5031138;28;20877;-46
2021/11/24 06:01:22;;;;;;;12.40;8.37;;;3.70;53.10;;;;;;5028770;28;20439;-48
2021/11/24 06:03:48;;;;;;;10.23;8.03;;;3.70;53.00;;;;;;5026102;28;20235;-46
2021/11/24 06:06:14;;;;;;;11.00;8.07;;;3.60;53.20;;;;;;5027955;28;20197;-47
2021/11/24 06:08:39;;;;;;;15.63;8.50;;;3.60;53.90;;;;;;5029350;28;20205;-46
2021/11/24 06:11:05;;;;;;;11.90;8.30;;;3.60;54.20;;;;;;5025756;28;20193;-47
2021/11/24 06:13:30;;;;;;;12.50;8.40;;;3.60;54.60;;;;;;5021821;28;20204;-48
2021/11/24 06:15:56;;;;;;;12.80;6.47;;;3.60;54.60;;;;;;5023928;28;20200;-46
2021/11/24 06:18:21;;;;;;;13.30;9.23;;;3.80;55.80;;;;;;5022337;28;20655;-47
2021/11/24 06:20:48;;;;;;;14.63;8.70;;;4.20;59.10;;;;;;5020445;28;20190;-47
2021/11/24 06:23:13;;;;;;;12.70;9.23;;;4.80;59.40;;;;;;5022643;28;20209;-47
2021/11/24 06:25:39;;;;;;;10.80;8.77;;;5.20;58.60;;;;;;5021201;28;20451;-46
2021/11/24 06:28:06;;;;;;;11.67;8.60;;;5.50;57.20;;;;;;5029330;28;20212;-47
2021/11/24 06:30:31;;;;;;;13.87;9.60;;;5.50;56.30;;;;;;5022725;28;20193;-47
2021/11/24 06:32:57;;;;;;;10.80;7.80;;;5.70;56.30;;;;;;5026934;28;20464;-47
2021/11/24 06:35:23;;;;;;;10.80;7.90;;;5.80;55.50;;;;;;5020141;28;20196;-47
2021/11/24 06:37:49;;;;;;;9.10;7.37;;;6.00;54.90;;;;;;5022072;28;20300;-47
2021/11/24 06:40:15;;;;;;;12.73;8.73;;;6.20;54.20;;;;;;5021179;28;20228;-46
2021/11/24 06:42:41;;;;;;;10.10;8.43;;;6.40;53.40;;;;;;5028989;28;20262;-47
2021/11/24 06:45:08;;;;;;;15.57;10.77;;;6.50;53.30;;;;;;5030291;28;20440;-47
2021/11/24 06:47:34;;;;;;;17.20;10.70;;;6.70;52.80;;;;;;5034264;28;20709;-46
2021/11/24 06:50:00;;;;;;;15.37;9.60;;;6.60;52.30;;;;;;5033839;28;20436;-47
2021/11/24 06:52:25;;;;;;;14.07;10.10;;;6.60;52.90;;;;;;5031314;28;21351;-46
2021/11/24 06:54:51;;;;;;;13.03;10.00;;;6.60;53.30;;;;;;5034814;28;20672;-46
2021/11/24 06:57:17;;;;;;;18.40;10.50;;;6.60;53.50;;;;;;5032839;28;20193;-46
2021/11/24 06:59:42;;;;;;;13.90;10.00;;;6.70;53.90;;;;;;5034555;28;20193;-48
2021/11/24 07:02:09;;;;;;;14.83;10.10;;;6.80;54.00;;;;;;5033063;28;20297;-47
2021/11/24 07:04:34;;;;;;;16.20;10.60;;;6.80;53.80;;;;;;5034513;28;21006;-47
2021/11/24 07:07:00;;;;;;;17.30;11.73;;;6.80;53.60;;;;;;5032276;28;20524;-47
2021/11/24 07:09:27;;;;;;;18.27;10.27;;;6.80;53.80;;;;;;5034228;28;20216;-46
2021/11/24 07:11:52;;;;;;;16.80;11.00;;;6.60;54.60;;;;;;5032737;28;20223;-48
2021/11/24 07:14:18;;;;;;;22.13;11.13;;;6.60;55.00;;;;;;5033934;28;20908;-47
2021/11/24 07:16:44;;;;;;;19.00;11.93;;;6.50;54.90;;;;;;5033111;28;20561;-47
2021/11/24 07:19:09;;;;;;;21.27;13.40;;;6.20;55.60;;;;;;5030689;28;20185;-46
2021/11/24 07:21:35;;;;;;;15.67;11.33;;;6.10;56.20;;;;;;5032541;28;20202;-49
2021/11/24 07:24:01;;;;;;;17.57;14.00;;;5.90;56.60;;;;;;5032750;28;20236;-47
2021/11/24 07:26:27;;;;;;;17.97;12.87;;;5.80;56.90;;;;;;5033600;28;20279;-47
2021/11/24 07:28:52;;;;;;;22.60;13.63;;;5.80;57.20;;;;;;5032340;28;20447;-51
2021/11/24 07:31:18;;;;;;;21.63;12.77;;;5.90;57.30;;;;;;5029379;28;20616;-49
2021/11/24 07:33:44;;;;;;;20.03;11.97;;;5.80;57.30;;;;;;5031767;28;20197;-48
2021/11/24 07:36:10;;;;;;;18.10;11.33;;;5.80;57.50;;;;;;5031881;28;20664;-47
2021/11/24 07:38:35;;;;;;;17.33;11.50;;;5.90;57.40;;;;;;5032624;28;20611;-47
2021/11/24 07:41:01;;;;;;;19.90;12.60;;;5.50;58.00;;;;;;5032187;28;20200;-47
2021/11/24 07:43:27;;;;;;;20.60;11.60;;;5.60;58.50;;;;;;5033225;28;20224;-47
2021/11/24 07:45:52;;;;;;;18.60;13.17;;;5.70;58.30;;;;;;5032576;28;20201;-47
2021/11/24 07:48:18;;;;;;;17.07;12.67;;;5.80;58.40;;;;;;5030816;28;20200;-48
2021/11/24 07:50:44;;;;;;;26.43;15.57;;;5.90;58.40;;;;;;5032200;28;20208;-46
2021/11/24 07:53:09;;;;;;;19.43;13.67;;;5.90;58.20;;;;;;5033042;28;20189;-48
2021/11/24 07:55:35;;;;;;;22.43;11.53;;;6.00;58.80;;;;;;5032874;28;20220;-47
2021/11/24 07:58:01;;;;;;;21.47;14.93;;;5.90;58.30;;;;;;5032470;28;20290;-47
2021/11/24 08:00:27;;;;;;;20.00;15.80;;;5.90;58.50;;;;;;5032761;28;20653;-47
2021/11/24 08:02:53;;;;;;;23.40;14.47;;;6.10;58.40;;;;;;5031634;28;20200;-47
2021/11/24 08:05:18;;;;;;;15.43;11.10;;;6.10;58.20;;;;;;5031766;28;20253;-48
2021/11/24 08:07:44;;;;;;;25.87;13.77;;;5.90;58.40;;;;;;5031211;28;20661;-47
2021/11/24 08:10:11;;;;;;;18.70;12.17;;;5.80;59.00;;;;;;5032057;28;20190;-46
2021/11/24 08:12:37;;;;;;;17.83;11.43;;;5.80;59.10;;;;;;5031543;28;20193;-47
2021/11/24 08:15:04;;;;;;;17.57;11.30;;;5.40;60.10;;;;;;5031527;28;20436;-46
2021/11/24 08:17:29;;;;;;;19.57;13.10;;;5.60;60.10;;;;;;5032426;28;20554;-46
2021/11/24 08:19:55;;;;;;;17.87;12.13;;;5.90;59.60;;;;;;5032345;28;20431;-47
2021/11/24 08:22:23;;;;;;;20.23;12.57;;;6.10;59.20;;;;;;5032429;28;20193;-48
2021/11/24 08:24:49;;;;;;;18.13;11.83;;;6.20;59.00;;;;;;5032010;28;20256;-46
2021/11/24 08:27:14;;;;;;;19.70;11.60;;;6.00;59.20;;;;;;5031491;28;20940;-47
2021/11/24 08:29:40;;;;;;;16.60;12.20;;;6.00;59.50;;;;;;5033676;28;20419;-46
2021/11/24 08:32:07;;;;;;;19.53;13.13;;;6.10;59.40;;;;;;5031762;28;20193;-48
2021/11/24 08:34:33;;;;;;;18.30;12.30;;;6.20;59.30;;;;;;5032675;28;20440;-47
2021/11/24 08:36:59;;;;;;;14.80;11.70;;;6.20;59.00;;;;;;5032546;28;20436;-46
2021/11/24 08:39:25;;;;;;;14.20;11.53;;;5.90;59.80;;;;;;5032468;28;20494;-47
2021/11/24 08:41:51;;;;;;;16.53;11.87;;;6.10;59.90;;;;;;5028889;28;20213;-48
2021/11/24 08:44:17;;;;;;;15.57;10.60;;;6.30;59.50;;;;;;5031420;28;20487;-47
2021/11/24 08:46:43;;;;;;;17.50;12.00;;;6.50;59.10;;;;;;5030249;28;20435;-46
2021/11/24 08:49:09;;;;;;;18.33;12.37;;;6.50;58.80;;;;;;5031899;28;20198;-46
2021/11/24 08:51:36;;;;;;;17.80;11.87;;;6.60;59.10;;;;;;5030279;28;20766;-47
2021/11/24 08:54:03;;;;;;;19.30;12.17;;;6.60;58.70;;;;;;5029942;28;20444;-47
2021/11/24 08:56:30;;;;;;;19.17;12.83;;;6.70;58.80;;;;;;5027065;28;20551;-46
2021/11/24 08:58:56;;;;;;;17.37;11.70;;;6.80;58.50;;;;;;5031454;28;21180;-48
2021/11/24 09:01:22;;;;;;;18.73;12.83;;;7.00;58.20;;;;;;5031642;28;20454;-46
2021/11/24 09:03:47;;;;;;;17.70;13.27;;;7.00;58.00;;;;;;5032780;28;20220;-47
2021/11/24 09:06:13;;;;;;;19.40;14.20;;;7.10;58.00;;;;;;5031770;28;20204;-46
2021/11/24 09:08:38;;;;;;;15.13;10.73;;;7.20;58.00;;;;;;5032173;28;20291;-46
2021/11/24 09:11:04;;;;;;;18.10;12.00;;;7.10;58.00;;;;;;5029336;28;20193;-48
2021/11/24 09:13:30;;;;;;;15.90;11.20;;;7.20;58.20;;;;;;5032796;28;20292;-46
2021/11/24 09:15:56;;;;;;;17.10;12.60;;;7.30;57.90;;;;;;5031426;28;20905;-48
2021/11/24 09:18:21;;;;;;;17.23;12.27;;;7.50;57.80;;;;;;5032640;28;20233;-46
2021/11/24 09:20:47;;;;;;;16.93;12.00;;;7.60;57.80;;;;;;5031338;28;20193;-49
2021/11/24 09:23:16;;;;;;;19.03;12.80;;;7.50;57.60;;;;;;5032263;28;20418;-46
2021/11/24 09:28:41;;;;;;;15.83;11.80;;;7.60;58.20;;;;;;5020065;28;20448;-48
2021/11/24 09:31:07;;;;;;;18.77;13.37;;;7.80;58.00;;;;;;5030825;28;20443;-49
2021/11/24 09:33:34;;;;;;;20.80;13.63;;;7.90;58.20;;;;;;5032455;28;20436;-46
2021/11/24 09:36:01;;;;;;;15.30;12.63;;;7.90;58.20;;;;;;5029947;28;20714;-47
2021/11/24 09:38:27;;;;;;;23.17;13.40;;;7.90;58.70;;;;;;5030734;28;20436;-47
2021/11/24 09:40:55;;;;;;;20.70;14.60;;;8.00;58.60;;;;;;5030932;28;20436;-50
2021/11/24 09:43:27;;;;;;;19.20;13.77;;;8.10;58.50;;;;;;5031845;28;20708;-46
2021/11/24 09:45:53;;;;;;;16.60;11.20;;;8.20;58.20;;;;;;5031473;28;20424;-51
2021/11/24 09:48:20;;;;;;;16.23;11.67;;;8.10;57.60;;;;;;5031719;28;20949;-46
2021/11/24 09:50:48;;;;;;;13.50;11.10;;;7.80;58.10;;;;;;5030511;28;20424;-50
2021/11/24 09:53:15;;;;;;;16.00;11.63;;;7.80;58.50;;;;;;5031950;28;20518;-48
2021/11/24 09:55:41;;;;;;;14.10;10.90;;;7.80;59.10;;;;;;5029655;28;20432;-50
2021/11/24 09:58:09;;;;;;;16.67;12.60;;;8.00;58.90;;;;;;5027471;28;20493;-47
2021/11/24 10:00:36;;;;;;;15.73;11.27;;;8.10;58.30;;;;;;5029866;28;20436;-47
2021/11/24 10:03:03;;;;;;;14.63;11.57;;;8.00;58.30;;;;;;5027805;28;20436;-47
2021/11/24 10:05:31;;;;;;;15.43;12.30;;;8.20;58.20;;;;;;5030330;28;20470;-49
2021/11/24 10:07:57;;;;;;;14.37;11.43;;;8.30;58.40;;;;;;5023600;28;20463;-48
2021/11/24 10:10:23;;;;;;;18.13;11.20;;;8.50;58.10;;;;;;5019198;28;20476;-46
2021/11/24 10:12:49;;;;;;;16.00;11.17;;;8.70;57.70;;;;;;5027144;28;20197;-50
2021/11/24 10:15:33;;;;;;;11.37;10.10;;;8.90;57.50;;;;;;5028322;28;20432;-48
2021/11/24 10:18:26;;;;;;;15.07;11.37;;;9.00;56.60;;;;;;5030760;28;20495;-47
2021/11/24 10:21:01;;;;;;;14.17;10.90;;;9.00;57.40;;;;;;5030501;28;20543;-48
2021/11/24 10:23:39;;;;;;;14.60;11.73;;;9.10;57.00;;;;;;5030180;28;20836;-48
2021/11/24 10:26:31;;;;;;;13.27;10.70;;;9.10;57.20;;;;;;5028225;28;20444;-47
2021/11/24 10:28:58;;;;;;;12.43;9.77;;;9.20;56.30;;;;;;5034490;28;20479;-49
2021/11/24 10:31:31;;;;;;;14.10;10.10;;;9.20;56.20;;;;;;5028632;28;20439;-48
2021/11/24 10:33:58;;;;;;;13.20;10.57;;;9.10;56.60;;;;;;5030123;28;20442;-47
2021/11/24 10:36:24;;;;;;;13.17;10.23;;;9.40;56.30;;;;;;5029915;28;20439;-48
2021/11/24 10:38:52;;;;;;;16.07;10.37;;;8.90;55.90;;;;;;5030705;28;20431;-47
2021/11/24 10:41:30;;;;;;;13.10;10.80;;;8.70;56.40;;;;;;5027183;28;20454;-47
2021/11/24 10:43:56;;;;;;;12.87;10.43;;;9.20;56.10;;;;;;5028621;28;20530;-48
2021/11/24 10:46:26;;;;;;;13.50;10.47;;;9.50;54.90;;;;;;5030008;28;20443;-47
2021/11/24 10:49:09;;;;;;;13.27;10.00;;;9.10;54.30;;;;;;5017946;28;20431;-48
2021/11/24 10:51:37;;;;;;;14.83;9.77;;;9.20;54.70;;;;;;5020622;28;20444;-48
2021/11/24 10:54:13;;;;;;;13.50;10.67;;;9.20;54.60;;;;;;5028931;28;20442;-50
2021/11/24 10:57:16;;;;;;;12.47;9.40;;;9.40;53.60;;;;;;5028663;28;20443;-47
2021/11/24 10:59:44;;;;;;;12.30;10.63;;;9.30;53.40;;;;;;5026071;28;20447;-47
2021/11/24 11:02:21;;;;;;;13.90;10.90;;;9.40;53.60;;;;;;5029652;28;20428;-49
2021/11/24 11:04:57;;;;;;;12.17;9.53;;;9.30;53.50;;;;;;5025728;28;20484;-46
2021/11/24 11:07:23;;;;;;;11.60;9.77;;;9.30;53.40;;;;;;5030152;28;20480;-51
2021/11/24 11:10:04;;;;;;;13.37;10.83;;;9.30;53.50;;;;;;5030104;28;20464;-47
2021/11/24 11:12:30;;;;;;;13.20;10.60;;;9.20;53.10;;;;;;5037992;28;21492;-47
2021/11/24 11:15:26;;;;;;;13.53;10.70;;;8.70;53.60;;;;;;5036467;28;21288;-46
2021/11/24 11:18:01;;;;;;;12.93;9.30;;;8.20;54.90;;;;;;5028226;28;20588;-46
2021/11/24 11:20:34;;;;;;;14.80;10.30;;;8.60;55.20;;;;;;5033751;28;20844;-48
2021/11/24 11:23:11;;;;;;;12.43;11.07;;;8.50;54.30;;;;;;5030311;28;20458;-50
2021/11/24 11:25:39;;;;;;;12.93;10.00;;;8.50;54.20;;;;;;5029618;28;20606;-46
2021/11/24 11:28:06;;;;;;;12.20;10.73;;;8.60;55.00;;;;;;5019696;28;20462;-48
2021/11/24 11:30:33;;;;;;;14.27;10.37;;;9.00;53.90;;;;;;5028803;28;20432;-47
2021/11/24 11:32:59;;;;;;;12.77;10.20;;;8.90;53.80;;;;;;5026333;28;20931;-46
2021/11/24 11:35:25;;;;;;;14.90;10.50;;;9.00;53.70;;;;;;5031969;28;21142;-48
2021/11/24 11:37:51;;;;;;;13.20;10.60;;;9.30;53.40;;;;;;5032693;28;21003;-49
2021/11/24 11:40:18;;;;;;;13.60;9.57;;;9.50;53.00;;;;;;5033215;28;20431;-46
2021/11/24 11:42:46;;;;;;;11.20;9.20;;;9.30;52.60;;;;;;5032011;28;20519;-47
2021/11/24 11:45:16;;;;;;;11.60;9.90;;;9.10;52.80;;;;;;5029378;28;20921;-47
2021/11/24 11:48:02;;;;;;;14.03;9.50;;;9.20;53.40;;;;;;5027438;28;20423;-46
2021/11/24 11:50:49;;;;;;;14.70;11.00;;;9.60;52.70;;;;;;5032001;28;20462;-48
2021/11/24 11:53:18;;;;;;;11.73;9.60;;;9.90;51.90;;;;;;5027951;28;20453;-46
2021/11/24 11:55:46;;;;;;;16.67;10.13;;;9.90;51.50;;;;;;5034510;28;20444;-46
2021/11/24 11:58:29;;;;;;;13.00;10.60;;;10.10;50.60;;;;;;5024168;28;20448;-48
2021/11/24 12:01:03;;;;;;;13.70;9.97;;;10.30;49.80;;;;;;5030765;28;20452;-48
2021/11/24 12:04:01;;;;;;;12.87;10.70;;;10.50;49.60;;;;;;5020887;28;20858;-49
2021/11/24 12:06:30;;;;;;;13.40;10.60;;;10.20;49.50;;;;;;5025906;28;20443;-46
2021/11/24 12:09:22;;;;;;;13.07;10.67;;;9.90;50.90;;;;;;5035095;28;20559;-47
2021/11/24 12:12:08;;;;;;;12.97;9.33;;;10.00;49.70;;;;;;5033204;28;20976;-48
2021/11/24 12:14:43;;;;;;;12.07;10.03;;;10.00;50.20;;;;;;5031918;28;20462;-50
2021/11/24 12:17:27;;;;;;;12.20;9.80;;;10.40;50.40;;;;;;5030129;28;20491;-51
2021/11/24 12:20:14;;;;;;;13.30;10.50;;;10.80;48.50;;;;;;5039176;28;20435;-49
2021/11/24 12:22:49;;;;;;;13.13;9.93;;;10.80;48.70;;;;;;5027267;28;20472;-50
2021/11/24 12:25:18;;;;;;;13.27;10.13;;;11.10;48.00;;;;;;5029691;28;20483;-46
2021/11/24 12:27:50;;;;;;;10.63;9.50;;;11.30;47.40;;;;;;5032177;28;20523;-48
2021/11/24 12:30:38;;;;;;;13.13;10.53;;;11.50;46.80;;;;;;5036561;28;20790;-47
2021/11/24 12:33:13;;;;;;;12.50;10.30;;;11.60;46.80;;;;;;5032540;28;20435;-48
2021/11/24 12:35:41;;;;;;;13.83;10.50;;;11.80;46.20;;;;;;5032652;28;20782;-47
2021/11/24 12:38:08;;;;;;;12.50;10.03;;;12.10;46.00;;;;;;5023677;28;20463;-48
2021/11/24 12:40:39;;;;;;;18.13;11.17;;;12.30;45.60;;;;;;5020827;28;20443;-49
2021/11/24 12:43:07;;;;;;;13.20;10.30;;;12.20;45.30;;;;;;5018594;28;20468;-46
2021/11/24 12:45:34;;;;;;;13.40;10.30;;;11.60;46.00;;;;;;5032657;28;20439;-48
2021/11/24 12:48:04;;;;;;;13.47;10.93;;;11.40;46.50;;;;;;5032568;28;20822;-46
2021/11/24 12:50:31;;;;;;;13.50;10.73;;;11.30;46.90;;;;;;5035765;28;20477;-50